createdAt,value
2018-07-05T00:00:09.992Z,75.99
2018-07-05T00:01:10.027Z,75.90
2018-07-05T00:02:10.038Z,76.18
2018-07-05T00:03:10.062Z,76.28
2018-07-05T00:04:10.088Z,76.28
2018-07-05T00:05:10.113Z,76.38
2018-07-05T00:06:10.134Z,76.86
2018-07-05T00:07:13.190Z,77.06
2018-07-05T00:08:10.183Z,76.73
2018-07-05T00:09:10.208Z,77.06
2018-07-05T00:10:10.231Z,77.53
2018-07-05T00:11:10.257Z,77.53
2018-07-05T00:12:10.289Z,77.53
2018-07-05T00:13:10.305Z,77.40
2018-07-05T00:14:10.331Z,77.83
2018-07-05T00:15:10.354Z,77.63
2018-07-05T00:16:10.378Z,78.65
2018-07-05T00:17:10.444Z,78.46
2018-07-05T00:18:10.424Z,78.17
2018-07-05T00:19:10.448Z,78.56
2018-07-05T00:20:10.476Z,78.65
2018-07-05T00:21:10.500Z,78.75
2018-07-05T00:22:10.521Z,79.03
2018-07-05T00:23:10.545Z,79.13
2018-07-05T00:24:10.570Z,79.23
2018-07-05T00:25:10.594Z,79.33
2018-07-05T00:26:10.617Z,78.85
2018-07-05T00:27:10.644Z,79.43
2018-07-05T00:28:10.666Z,79.71
2018-07-05T00:29:10.692Z,80.00
2018-07-05T00:30:10.713Z,79.61
2018-07-05T00:31:10.740Z,80.19
2018-07-05T00:32:10.765Z,80.10
2018-07-05T00:33:10.786Z,79.90
2018-07-05T00:34:10.810Z,80.29
2018-07-05T00:35:10.835Z,80.19
2018-07-05T00:36:10.860Z,80.58
2018-07-05T00:37:10.880Z,80.29
2018-07-05T00:38:10.906Z,81.16
2018-07-05T00:39:10.932Z,81.06
2018-07-05T00:40:10.954Z,81.25
2018-07-05T00:41:10.983Z,81.93
2018-07-05T00:42:11.001Z,81.83
2018-07-05T00:43:11.025Z,81.45
2018-07-05T00:44:11.049Z,81.93
2018-07-05T00:45:11.074Z,82.02
2018-07-05T00:46:11.097Z,82.70
2018-07-05T00:47:11.122Z,82.50
2018-07-05T00:48:11.145Z,82.56
2018-07-05T00:49:11.246Z,82.75
2018-07-05T00:50:11.195Z,83.52
2018-07-05T00:51:11.219Z,83.23
2018-07-05T00:52:11.245Z,83.33
2018-07-05T00:53:11.266Z,83.72
2018-07-05T00:54:11.290Z,83.91
2018-07-05T00:55:11.314Z,83.62
2018-07-05T00:56:11.341Z,83.91
2018-07-05T00:57:11.358Z,84.10
2018-07-05T00:58:11.383Z,84.19
2018-07-05T00:59:11.408Z,84.67
2018-07-05T01:00:11.430Z,85.16
2018-07-05T01:01:11.453Z,85.25
2018-07-05T01:02:11.479Z,85.74
2018-07-05T01:03:11.505Z,85.64
2018-07-05T01:04:11.528Z,86.41
2018-07-05T01:05:11.552Z,86.56
2018-07-05T01:06:11.574Z,86.36
2018-07-05T01:07:11.600Z,86.94
2018-07-05T01:08:11.620Z,87.04
2018-07-05T01:09:11.643Z,87.04
2018-07-05T01:10:11.670Z,87.42
2018-07-05T01:11:11.695Z,87.52
2018-07-05T01:12:11.719Z,87.81
2018-07-05T01:13:11.741Z,88.10
2018-07-05T01:14:11.769Z,88.19
2018-07-05T01:15:11.816Z,88.67
2018-07-05T01:16:11.813Z,88.67
2018-07-05T01:17:11.839Z,89.06
2018-07-05T01:18:11.857Z,89.35
2018-07-05T01:19:11.884Z,89.54
2018-07-05T01:20:11.905Z,89.54
2018-07-05T01:21:11.931Z,89.64
2018-07-05T01:22:11.952Z,90.02
2018-07-05T01:23:11.975Z,90.02
2018-07-05T01:24:11.999Z,89.69
2018-07-05T01:25:12.023Z,89.83
2018-07-05T01:26:12.050Z,90.31
2018-07-05T01:27:12.073Z,90.65
2018-07-05T01:28:12.097Z,90.65
2018-07-05T01:29:12.118Z,91.03
2018-07-05T01:30:12.144Z,91.52
2018-07-05T01:31:12.164Z,92.09
2018-07-05T01:32:12.188Z,91.71
2018-07-05T01:33:12.214Z,91.99
2018-07-05T01:34:12.235Z,92.67
2018-07-05T01:35:12.258Z,92.57
2018-07-05T01:36:12.284Z,92.76
2018-07-05T01:37:12.307Z,92.76
2018-07-05T01:38:12.332Z,92.76
2018-07-05T01:39:12.354Z,93.44
2018-07-05T01:40:12.376Z,93.44
2018-07-05T01:41:12.402Z,93.73
2018-07-05T01:42:12.425Z,93.73
2018-07-05T01:43:12.450Z,94.01
2018-07-05T01:44:12.473Z,94.01
2018-07-05T01:45:12.496Z,94.11
2018-07-05T01:46:12.519Z,94.30
2018-07-05T01:47:12.544Z,94.49
2018-07-05T01:48:12.567Z,94.68
2018-07-05T01:49:12.590Z,94.68
2018-07-05T01:50:12.614Z,94.88
2018-07-05T01:51:12.634Z,94.98
2018-07-05T01:52:12.659Z,94.98
2018-07-05T01:53:12.684Z,94.78
2018-07-05T01:54:12.704Z,94.68
2018-07-05T01:55:12.735Z,94.68
2018-07-05T01:56:12.753Z,94.88
2018-07-05T01:57:12.775Z,94.98
2018-07-05T01:58:12.798Z,95.45
2018-07-05T01:59:12.824Z,95.50
2018-07-05T02:00:12.846Z,95.84
2018-07-05T02:01:12.867Z,96.56
2018-07-05T02:02:12.893Z,95.98
2018-07-05T02:03:12.918Z,96.66
2018-07-05T02:04:12.942Z,96.61
2018-07-05T02:05:12.964Z,96.27
2018-07-05T02:06:12.986Z,96.56
2018-07-05T02:07:13.009Z,96.70
2018-07-05T02:08:13.032Z,97.33
2018-07-05T02:09:13.054Z,97.14
2018-07-05T02:10:13.081Z,97.42
2018-07-05T02:11:13.103Z,97.81
2018-07-05T02:12:13.125Z,98.19
2018-07-05T02:13:13.150Z,98.39
2018-07-05T02:14:13.172Z,98.29
2018-07-05T02:15:13.195Z,99.06
2018-07-05T02:16:13.222Z,99.35
2018-07-05T02:17:13.244Z,99.25
2018-07-05T02:18:13.266Z,99.83
2018-07-05T02:19:13.289Z,99.83
2018-07-05T02:20:13.315Z,99.99
2018-07-05T02:21:13.338Z,99.99
2018-07-05T02:22:13.358Z,99.99
2018-07-05T02:23:13.385Z,99.99
2018-07-05T02:24:13.407Z,99.99
2018-07-05T02:25:13.430Z,99.99
2018-07-05T02:26:13.452Z,99.99
2018-07-05T02:27:13.475Z,99.99
2018-07-05T02:28:13.501Z,99.99
2018-07-05T02:29:13.522Z,99.99
2018-07-05T02:30:13.549Z,99.99
2018-07-05T02:31:13.574Z,99.99
2018-07-05T02:32:13.594Z,99.99
2018-07-05T02:33:13.616Z,99.99
2018-07-05T02:34:13.640Z,99.99
2018-07-05T02:35:13.664Z,99.99
2018-07-05T02:36:13.687Z,99.99
2018-07-05T02:37:13.707Z,99.99
2018-07-05T02:38:13.729Z,99.99
2018-07-05T02:39:13.753Z,99.99
2018-07-05T02:40:13.780Z,99.99
2018-07-05T02:41:13.802Z,99.99
2018-07-05T02:42:13.823Z,99.99
2018-07-05T02:43:13.845Z,99.99
2018-07-05T02:44:13.870Z,99.99
2018-07-05T02:45:13.895Z,99.99
2018-07-05T02:46:13.915Z,99.99
2018-07-05T02:47:13.939Z,99.99
2018-07-05T02:48:13.975Z,99.99
2018-07-05T02:49:13.987Z,99.99
2018-07-05T02:50:14.011Z,99.99
2018-07-05T02:51:14.031Z,99.99
2018-07-05T02:52:14.059Z,99.99
2018-07-05T02:53:14.078Z,99.99
2018-07-05T02:54:14.102Z,99.99
2018-07-05T02:55:14.124Z,99.99
2018-07-05T02:56:14.148Z,99.99
2018-07-05T02:57:14.172Z,99.99
2018-07-05T02:58:14.194Z,99.99
2018-07-05T02:59:14.216Z,99.99
2018-07-05T03:00:14.241Z,99.99
2018-07-05T03:01:14.262Z,99.99
2018-07-05T03:02:14.286Z,99.99
2018-07-05T03:03:14.308Z,99.99
2018-07-05T03:04:14.335Z,99.99
2018-07-05T03:05:14.354Z,99.99
2018-07-05T03:06:14.381Z,99.99
2018-07-05T03:07:14.401Z,99.99
2018-07-05T03:08:14.427Z,99.99
2018-07-05T03:09:14.448Z,99.99
2018-07-05T03:10:14.473Z,99.99
2018-07-05T03:11:14.494Z,99.99
2018-07-05T03:12:14.518Z,99.99
2018-07-05T03:13:14.540Z,99.99
2018-07-05T03:14:14.565Z,99.99
2018-07-05T03:15:14.585Z,99.99
2018-07-05T03:16:14.682Z,99.99
2018-07-05T03:17:14.635Z,99.99
2018-07-05T03:18:14.655Z,99.99
2018-07-05T03:19:14.681Z,99.99
2018-07-05T03:20:14.705Z,99.99
2018-07-05T03:21:14.727Z,99.99
2018-07-05T03:22:14.747Z,99.99
2018-07-05T03:23:14.773Z,99.99
2018-07-05T03:24:14.797Z,99.99
2018-07-05T03:25:14.819Z,99.99
2018-07-05T03:26:14.839Z,99.99
2018-07-05T03:27:14.863Z,99.99
2018-07-05T03:28:14.886Z,99.99
2018-07-05T03:29:14.908Z,99.99
2018-07-05T03:30:14.931Z,99.99
2018-07-05T03:31:14.955Z,99.99
2018-07-05T03:32:14.977Z,99.99
2018-07-05T03:33:14.999Z,99.99
2018-07-05T03:34:15.024Z,99.99
2018-07-05T03:35:15.047Z,99.99
2018-07-05T03:36:15.075Z,99.99
2018-07-05T03:37:15.092Z,99.99
2018-07-05T03:38:15.118Z,99.99
2018-07-05T03:39:15.139Z,99.99
2018-07-05T03:40:15.170Z,99.99
2018-07-05T03:41:15.185Z,99.99
2018-07-05T03:42:15.211Z,99.99
2018-07-05T03:43:15.233Z,99.99
2018-07-05T03:44:15.256Z,99.99
2018-07-05T03:45:15.281Z,99.99
2018-07-05T03:46:15.302Z,99.99
2018-07-05T03:47:15.326Z,99.99
2018-07-05T03:48:15.347Z,99.99
2018-07-05T03:49:15.370Z,99.99
2018-07-05T03:50:15.395Z,99.99
2018-07-05T03:51:15.415Z,99.99
2018-07-05T03:52:15.441Z,99.99
2018-07-05T03:53:15.497Z,99.99
2018-07-05T03:54:15.488Z,99.99
2018-07-05T03:55:15.508Z,99.99
2018-07-05T03:56:15.535Z,99.99
2018-07-05T03:57:15.556Z,99.99
2018-07-05T03:58:15.579Z,99.99
2018-07-05T03:59:15.601Z,99.99
2018-07-05T04:00:15.624Z,99.99
2018-07-05T04:01:15.650Z,99.99
2018-07-05T04:02:15.670Z,99.99
2018-07-05T04:03:15.695Z,99.99
2018-07-05T04:04:15.716Z,99.99
2018-07-05T04:05:15.745Z,99.99
2018-07-05T04:06:15.762Z,99.99
2018-07-05T04:07:15.788Z,99.99
2018-07-05T04:08:15.859Z,99.99
2018-07-05T04:09:15.831Z,99.99
2018-07-05T04:10:15.855Z,99.99
2018-07-05T04:11:15.881Z,99.99
2018-07-05T04:12:15.908Z,99.99
2018-07-05T04:13:15.927Z,99.99
2018-07-05T04:14:15.946Z,99.99
2018-07-05T04:15:15.972Z,99.99
2018-07-05T04:16:15.994Z,99.99
2018-07-05T04:17:16.018Z,99.99
2018-07-05T04:18:16.043Z,99.99
2018-07-05T04:19:16.067Z,99.99
2018-07-05T04:20:16.090Z,99.99
2018-07-05T04:21:16.108Z,99.99
2018-07-05T04:22:16.133Z,99.99
2018-07-05T04:23:16.159Z,99.99
2018-07-05T04:24:16.182Z,99.99
2018-07-05T04:25:16.206Z,99.99
2018-07-05T04:26:16.226Z,99.99
2018-07-05T04:27:16.248Z,99.99
2018-07-05T04:28:16.272Z,99.99
2018-07-05T04:29:16.297Z,99.99
2018-07-05T04:30:16.324Z,99.99
2018-07-05T04:31:16.342Z,99.99
2018-07-05T04:32:16.365Z,99.99
2018-07-05T04:33:16.387Z,99.99
2018-07-05T04:34:16.483Z,99.99
2018-07-05T04:35:16.437Z,99.99
2018-07-05T04:36:16.461Z,99.99
2018-07-05T04:37:16.483Z,99.99
2018-07-05T04:38:16.504Z,99.99
2018-07-05T04:39:16.527Z,99.99
2018-07-05T04:40:16.554Z,99.99
2018-07-05T04:41:16.573Z,99.99
2018-07-05T04:42:16.600Z,99.99
2018-07-05T04:43:16.623Z,99.99
2018-07-05T04:44:16.649Z,99.99
2018-07-05T04:45:16.672Z,99.99
2018-07-05T04:46:16.692Z,99.99
2018-07-05T04:47:16.716Z,99.99
2018-07-05T04:48:16.739Z,99.99
2018-07-05T04:49:16.761Z,99.99
2018-07-05T04:50:16.783Z,99.99
2018-07-05T04:51:16.806Z,99.99
2018-07-05T04:52:16.830Z,99.99
2018-07-05T04:53:16.855Z,99.99
2018-07-05T04:54:16.902Z,99.99
2018-07-05T04:55:16.900Z,99.99
2018-07-05T04:56:16.926Z,99.99
2018-07-05T04:57:16.947Z,99.99
2018-07-05T04:58:16.969Z,99.99
2018-07-05T04:59:16.995Z,99.99
2018-07-05T05:00:17.019Z,99.99
2018-07-05T05:01:17.040Z,99.99
2018-07-05T05:02:17.120Z,99.78
2018-07-05T05:03:17.089Z,99.54
2018-07-05T05:04:17.114Z,98.87
2018-07-05T05:05:17.139Z,98.10
2018-07-05T05:06:17.159Z,97.52
2018-07-05T05:07:17.182Z,97.24
2018-07-05T05:08:17.208Z,96.94
2018-07-05T05:09:17.228Z,96.56
2018-07-05T05:10:17.258Z,95.98
2018-07-05T05:11:17.276Z,96.03
2018-07-05T05:12:17.300Z,95.17
2018-07-05T05:13:17.322Z,95.94
2018-07-05T05:14:17.350Z,95.94
2018-07-05T05:15:17.371Z,95.74
2018-07-05T05:16:17.396Z,95.55
2018-07-05T05:17:17.420Z,95.89
2018-07-05T05:18:17.444Z,95.89
2018-07-05T05:19:17.466Z,95.45
2018-07-05T05:20:17.494Z,94.97
2018-07-05T05:21:17.516Z,94.40
2018-07-05T05:22:17.539Z,94.30
2018-07-05T05:23:17.565Z,93.82
2018-07-05T05:24:17.606Z,92.80
2018-07-05T05:25:17.609Z,93.29
2018-07-05T05:26:17.637Z,92.42
2018-07-05T05:27:17.658Z,92.85
2018-07-05T05:28:17.684Z,92.57
2018-07-05T05:29:17.714Z,93.53
2018-07-05T05:30:17.733Z,99.99
2018-07-05T05:31:17.756Z,94.00
2018-07-05T05:32:17.779Z,88.10
2018-07-05T05:33:17.803Z,83.37
2018-07-05T05:34:17.828Z,82.83
2018-07-05T05:35:17.855Z,81.73
2018-07-05T05:36:17.877Z,81.15
2018-07-05T05:37:17.900Z,83.99
2018-07-05T05:38:17.930Z,81.52
2018-07-05T05:39:17.949Z,79.04
2018-07-05T05:40:17.976Z,77.36
2018-07-05T05:41:17.998Z,79.49
2018-07-05T05:42:18.025Z,79.00
2018-07-05T05:43:18.050Z,78.27
2018-07-05T05:44:18.074Z,76.68
2018-07-05T05:45:18.098Z,78.54
2018-07-05T05:46:18.122Z,79.93
2018-07-05T05:47:18.147Z,77.76
2018-07-05T05:48:18.172Z,77.86
2018-07-05T05:49:18.195Z,78.79
2018-07-05T05:50:18.220Z,80.91
2018-07-05T05:51:18.246Z,80.78
2018-07-05T05:52:18.271Z,82.71
2018-07-05T05:53:18.294Z,82.57
2018-07-05T05:54:18.319Z,84.00
2018-07-05T05:55:18.347Z,81.15
2018-07-05T05:56:18.372Z,76.45
2018-07-05T05:57:18.397Z,77.45
2018-07-05T05:58:18.423Z,76.43
2018-07-05T05:59:18.446Z,75.89
2018-07-05T06:00:18.473Z,74.63
2018-07-05T06:01:18.497Z,73.02
2018-07-05T06:02:18.523Z,71.66
2018-07-05T06:03:18.549Z,72.44
2018-07-05T06:04:18.570Z,71.99
2018-07-05T06:05:18.594Z,71.70
2018-07-05T06:06:18.622Z,72.28
2018-07-05T06:07:18.647Z,71.41
2018-07-05T06:08:18.674Z,70.83
2018-07-05T06:09:18.697Z,71.50
2018-07-05T06:10:18.722Z,71.50
2018-07-05T06:11:18.751Z,70.67
2018-07-05T06:12:18.776Z,70.28
2018-07-05T06:13:18.803Z,69.12
2018-07-05T06:14:18.829Z,68.63
2018-07-05T06:15:18.887Z,70.18
2018-07-05T06:16:18.879Z,69.50
2018-07-05T06:17:18.906Z,68.24
2018-07-05T06:18:18.931Z,67.66
2018-07-05T06:19:18.961Z,68.82
2018-07-05T06:20:18.986Z,67.63
2018-07-05T06:21:19.015Z,68.40
2018-07-05T06:22:19.037Z,69.08
2018-07-05T06:23:19.064Z,70.01
2018-07-05T06:24:19.092Z,70.01
2018-07-05T06:25:19.120Z,70.11
2018-07-05T06:26:19.145Z,71.18
2018-07-05T06:27:19.176Z,70.95
2018-07-05T06:28:19.201Z,71.34
2018-07-05T06:29:19.225Z,71.69
2018-07-05T06:30:19.256Z,74.17
2018-07-05T06:31:19.281Z,74.07
2018-07-05T06:32:19.310Z,74.40
2018-07-05T06:33:19.337Z,73.14
2018-07-05T06:34:19.363Z,72.69
2018-07-05T06:35:19.392Z,72.60
2018-07-05T06:36:19.418Z,72.11
2018-07-05T06:37:19.446Z,71.34
2018-07-05T06:38:19.472Z,71.44
2018-07-05T06:39:19.500Z,71.47
2018-07-05T06:40:19.527Z,71.86
2018-07-05T06:41:19.556Z,71.37
2018-07-05T06:42:19.581Z,71.76
2018-07-05T06:43:19.613Z,71.37
2018-07-05T06:44:19.640Z,71.18
2018-07-05T06:45:19.669Z,70.25
2018-07-05T06:46:19.697Z,70.11
2018-07-05T06:47:19.739Z,70.50
2018-07-05T06:48:19.750Z,69.95
2018-07-05T06:49:19.830Z,69.43
2018-07-05T06:50:19.807Z,69.67
2018-07-05T06:51:19.834Z,68.40
2018-07-05T06:52:19.864Z,68.12
2018-07-05T06:53:19.890Z,69.05
2018-07-05T06:54:19.918Z,69.27
2018-07-05T06:55:19.946Z,68.89
2018-07-05T06:56:19.973Z,68.50
2018-07-05T06:57:20.005Z,68.66
2018-07-05T06:58:20.032Z,69.37
2018-07-05T06:59:20.059Z,69.37
2018-07-05T07:00:20.088Z,68.66
2018-07-05T07:01:20.116Z,70.21
2018-07-05T07:02:20.143Z,70.21
2018-07-05T07:03:20.174Z,70.11
2018-07-05T07:04:20.199Z,69.92
2018-07-05T07:05:20.227Z,70.60
2018-07-05T07:06:20.260Z,70.76
2018-07-05T07:07:20.287Z,70.89
2018-07-05T07:08:20.314Z,70.40
2018-07-05T07:09:20.341Z,69.76
2018-07-05T07:10:20.371Z,68.79
2018-07-05T07:11:20.402Z,68.60
2018-07-05T07:12:20.428Z,67.44
2018-07-05T07:13:20.459Z,67.76
2018-07-05T07:14:20.486Z,67.50
2018-07-05T07:15:20.519Z,66.14
2018-07-05T07:16:20.548Z,66.05
2018-07-05T07:17:20.574Z,66.27
2018-07-05T07:18:20.603Z,65.01
2018-07-05T07:19:20.632Z,64.43
2018-07-05T07:20:20.665Z,65.59
2018-07-05T07:21:20.693Z,65.56
2018-07-05T07:22:20.723Z,65.85
2018-07-05T07:23:20.752Z,66.69
2018-07-05T07:24:20.782Z,67.08
2018-07-05T07:25:20.811Z,67.31
2018-07-05T07:26:20.839Z,66.50
2018-07-05T07:27:20.870Z,66.60
2018-07-05T07:28:20.897Z,66.44
2018-07-05T07:29:20.926Z,65.01
2018-07-05T07:30:20.956Z,64.62
2018-07-05T07:31:21.003Z,63.85
2018-07-05T07:32:21.016Z,64.53
2018-07-05T07:33:21.047Z,66.05
2018-07-05T07:34:21.078Z,65.50
2018-07-05T07:35:21.109Z,64.75
2018-07-05T07:36:21.136Z,64.82
2018-07-05T07:37:21.194Z,64.82
2018-07-05T07:38:21.196Z,63.85
2018-07-05T07:39:21.227Z,64.56
2018-07-05T07:40:21.255Z,64.65
2018-07-05T07:41:21.285Z,63.98
2018-07-05T07:42:21.316Z,63.88
2018-07-05T07:43:21.347Z,63.29
2018-07-05T07:44:21.383Z,63.59
2018-07-05T07:45:21.413Z,63.68
2018-07-05T07:46:21.435Z,64.04
2018-07-05T07:47:21.468Z,64.36
2018-07-05T07:48:21.500Z,63.68
2018-07-05T07:49:21.526Z,64.26
2018-07-05T07:50:21.562Z,63.39
2018-07-05T07:51:21.689Z,63.59
2018-07-05T07:52:21.621Z,63.68
2018-07-05T07:53:21.649Z,63.04
2018-07-05T07:54:21.679Z,62.32
2018-07-05T07:55:21.710Z,62.91
2018-07-05T07:56:21.745Z,62.91
2018-07-05T07:57:21.773Z,62.94
2018-07-05T07:58:21.801Z,63.10
2018-07-05T07:59:21.832Z,62.88
2018-07-05T08:00:21.863Z,63.07
2018-07-05T08:01:21.894Z,62.91
2018-07-05T08:02:21.927Z,62.81
2018-07-05T08:03:21.958Z,63.36
2018-07-05T08:04:21.987Z,63.68
2018-07-05T08:05:22.017Z,63.39
2018-07-05T08:06:22.046Z,62.32
2018-07-05T08:07:22.077Z,62.45
2018-07-05T08:08:22.108Z,61.12
2018-07-05T08:09:22.143Z,60.74
2018-07-05T08:10:22.169Z,60.44
2018-07-05T08:11:22.202Z,60.54
2018-07-05T08:12:22.230Z,60.74
2018-07-05T08:13:22.264Z,60.57
2018-07-05T08:14:22.296Z,60.77
2018-07-05T08:15:22.327Z,59.63
2018-07-05T08:16:22.358Z,59.11
2018-07-05T08:17:22.387Z,59.69
2018-07-05T08:18:22.416Z,59.69
2018-07-05T08:19:22.452Z,60.18
2018-07-05T08:20:22.545Z,60.38
2018-07-05T08:21:22.509Z,61.19
2018-07-05T08:22:22.544Z,61.94
2018-07-05T08:23:22.572Z,62.81
2018-07-05T08:24:22.603Z,61.74
2018-07-05T08:25:22.635Z,61.48
2018-07-05T08:26:22.667Z,60.51
2018-07-05T08:27:22.696Z,60.15
2018-07-05T08:28:22.729Z,60.05
2018-07-05T08:29:22.756Z,59.69
2018-07-05T08:30:22.789Z,58.56
2018-07-05T08:31:22.837Z,58.75
2018-07-05T08:32:22.851Z,59.01
2018-07-05T08:33:22.881Z,59.01
2018-07-05T08:34:22.913Z,58.85
2018-07-05T08:35:22.942Z,58.14
2018-07-05T08:36:22.976Z,58.62
2018-07-05T08:37:23.006Z,57.65
2018-07-05T08:38:23.037Z,57.20
2018-07-05T08:39:23.068Z,55.86
2018-07-05T08:40:23.100Z,56.05
2018-07-05T08:41:23.129Z,55.50
2018-07-05T08:42:23.161Z,55.01
2018-07-05T08:43:23.191Z,54.85
2018-07-05T08:44:23.222Z,54.87
2018-07-05T08:45:23.254Z,53.89
2018-07-05T08:46:23.285Z,53.77
2018-07-05T08:47:23.315Z,54.09
2018-07-05T08:48:23.348Z,53.97
2018-07-05T08:49:23.379Z,53.21
2018-07-05T08:50:23.412Z,53.58
2018-07-05T08:51:23.441Z,53.41
2018-07-05T08:52:23.476Z,52.66
2018-07-05T08:53:23.508Z,53.48
2018-07-05T08:54:23.535Z,53.97
2018-07-05T08:55:23.567Z,53.31
2018-07-05T08:56:23.599Z,53.11
2018-07-05T08:57:23.630Z,53.28
2018-07-05T08:58:23.703Z,54.06
2018-07-05T08:59:23.703Z,53.60
2018-07-05T09:00:23.730Z,52.44
2018-07-05T09:01:23.759Z,52.46
2018-07-05T09:02:23.791Z,52.56
2018-07-05T09:03:23.826Z,52.14
2018-07-05T09:04:23.854Z,51.65
2018-07-05T09:05:23.890Z,50.51
2018-07-05T09:06:23.918Z,50.34
2018-07-05T09:07:23.955Z,48.88
2018-07-05T09:08:23.983Z,48.49
2018-07-05T09:09:24.017Z,48.12
2018-07-05T09:10:24.050Z,48.78
2018-07-05T09:11:24.081Z,49.22
2018-07-05T09:12:24.111Z,50.58
2018-07-05T09:13:24.145Z,51.53
2018-07-05T09:14:24.178Z,51.82
2018-07-05T09:15:24.418Z,52.31
2018-07-05T09:16:24.243Z,51.85
2018-07-05T09:17:24.280Z,51.29
2018-07-05T09:18:24.337Z,51.39
2018-07-05T09:19:24.343Z,50.31
2018-07-05T09:20:24.380Z,50.12
2018-07-05T09:21:24.425Z,50.04
2018-07-05T09:22:24.435Z,49.46
2018-07-05T09:23:24.643Z,49.56
2018-07-05T09:24:24.504Z,50.14
2018-07-05T09:25:24.536Z,49.39
2018-07-05T09:26:24.566Z,49.58
2018-07-05T09:27:24.601Z,49.10
2018-07-05T09:28:24.633Z,49.37
2018-07-05T09:29:24.663Z,48.61
2018-07-05T09:30:24.697Z,48.44
2018-07-05T09:31:24.734Z,48.26
2018-07-05T09:32:24.766Z,48.54
2018-07-05T09:33:24.799Z,49.37
2018-07-05T09:34:24.830Z,49.95
2018-07-05T09:35:24.862Z,49.56
2018-07-05T09:36:24.893Z,49.29
2018-07-05T09:37:25.013Z,48.54
2018-07-05T09:38:24.962Z,47.66
2018-07-05T09:39:25.006Z,47.67
2018-07-05T09:40:25.063Z,47.09
2018-07-05T09:41:25.059Z,46.62
2018-07-05T09:42:25.088Z,46.06
2018-07-05T09:43:25.124Z,46.72
2018-07-05T09:44:25.157Z,47.19
2018-07-05T09:45:25.189Z,47.95
2018-07-05T09:46:25.374Z,47.19
2018-07-05T09:47:25.254Z,47.38
2018-07-05T09:48:25.287Z,46.99
2018-07-05T09:49:25.322Z,45.65
2018-07-05T09:50:25.356Z,45.97
2018-07-05T09:51:25.384Z,45.65
2018-07-05T09:52:25.427Z,45.82
2018-07-05T09:53:25.452Z,46.04
2018-07-05T09:54:25.482Z,45.94
2018-07-05T09:55:25.519Z,46.14
2018-07-05T09:56:25.552Z,46.23
2018-07-05T09:57:25.584Z,46.31
2018-07-05T09:58:25.615Z,47.24
2018-07-05T09:59:25.650Z,47.85
2018-07-05T10:00:25.684Z,47.66
2018-07-05T10:01:25.716Z,47.56
2018-07-05T10:02:25.747Z,46.23
2018-07-05T10:03:25.836Z,46.50
2018-07-05T10:04:25.815Z,46.11
2018-07-05T10:05:25.848Z,46.50
2018-07-05T10:06:25.885Z,46.50
2018-07-05T10:07:25.914Z,45.75
2018-07-05T10:08:25.945Z,45.37
2018-07-05T10:09:25.978Z,44.40
2018-07-05T10:10:26.012Z,45.26
2018-07-05T10:11:26.187Z,45.55
2018-07-05T10:12:26.082Z,44.79
2018-07-05T10:13:26.437Z,44.52
2018-07-05T10:14:26.146Z,44.71
2018-07-05T10:15:26.179Z,44.42
2018-07-05T10:16:26.212Z,44.24
2018-07-05T10:17:26.244Z,43.63
2018-07-05T10:18:26.278Z,44.20
2018-07-05T10:19:26.359Z,44.13
2018-07-05T10:20:26.347Z,44.23
2018-07-05T10:21:26.379Z,43.56
2018-07-05T10:22:26.411Z,43.24
2018-07-05T10:23:26.446Z,42.95
2018-07-05T10:24:26.546Z,43.37
2018-07-05T10:25:26.509Z,42.97
2018-07-05T10:26:26.542Z,42.48
2018-07-05T10:27:26.578Z,43.27
2018-07-05T10:28:26.610Z,43.17
2018-07-05T10:29:26.648Z,42.68
2018-07-05T10:30:26.677Z,43.09
2018-07-05T10:31:26.711Z,42.50
2018-07-05T10:32:26.749Z,42.48
2018-07-05T10:33:26.779Z,43.17
2018-07-05T10:34:26.813Z,42.88
2018-07-05T10:35:26.845Z,42.99
2018-07-05T10:36:26.881Z,42.03
2018-07-05T10:37:26.913Z,41.19
2018-07-05T10:38:26.947Z,40.68
2018-07-05T10:39:26.982Z,40.41
2018-07-05T10:40:27.018Z,40.76
2018-07-05T10:41:27.051Z,40.66
2018-07-05T10:42:27.083Z,42.19
2018-07-05T10:43:27.115Z,41.99
2018-07-05T10:45:27.794Z,42.46
2018-07-05T10:46:27.216Z,42.93
2018-07-05T10:47:27.252Z,42.95
2018-07-05T10:48:27.285Z,42.58
2018-07-05T10:49:27.321Z,41.82
2018-07-05T10:50:27.353Z,41.15
2018-07-05T10:51:27.389Z,40.78
2018-07-05T10:52:27.424Z,40.29
2018-07-05T10:53:27.459Z,41.15
2018-07-05T10:54:30.521Z,40.48
2018-07-05T10:55:27.522Z,40.21
2018-07-05T10:56:27.562Z,41.05
2018-07-05T10:57:27.593Z,41.42
2018-07-05T10:58:27.627Z,42.19
2018-07-05T10:59:27.662Z,41.50
2018-07-05T11:00:27.698Z,41.82
2018-07-05T11:01:27.730Z,41.45
2018-07-05T11:02:27.760Z,41.15
2018-07-05T11:03:27.798Z,40.09
2018-07-05T11:04:27.829Z,40.09
2018-07-05T11:05:27.862Z,40.09
2018-07-05T11:06:27.903Z,39.72
2018-07-05T11:07:28.005Z,39.70
2018-07-05T11:08:27.967Z,40.76
2018-07-05T11:09:28.005Z,40.19
2018-07-05T11:10:28.036Z,39.62
2018-07-05T11:11:28.069Z,40.08
2018-07-05T11:12:28.108Z,40.37
2018-07-05T11:13:28.139Z,39.59
2018-07-05T11:14:28.178Z,40.74
2018-07-05T11:15:28.208Z,40.74
2018-07-05T11:16:28.244Z,40.35
2018-07-05T11:17:28.273Z,41.02
2018-07-05T11:18:28.310Z,41.13
2018-07-05T11:19:28.345Z,40.37
2018-07-05T11:20:28.379Z,40.45
2018-07-05T11:21:28.412Z,41.11
2018-07-05T11:22:28.446Z,41.49
2018-07-05T11:23:28.480Z,41.19
2018-07-05T11:24:28.511Z,43.18
2018-07-05T11:25:28.546Z,44.35
2018-07-05T11:26:28.579Z,43.13
2018-07-05T11:27:28.614Z,41.39
2018-07-05T11:28:28.649Z,40.92
2018-07-05T11:29:28.683Z,39.59
2018-07-05T11:30:28.718Z,39.49
2018-07-05T11:31:28.752Z,39.70
2018-07-05T11:32:28.781Z,39.80
2018-07-05T11:33:28.815Z,39.29
2018-07-05T11:34:28.852Z,41.41
2018-07-05T11:35:28.885Z,42.32
2018-07-05T11:36:28.953Z,42.74
2018-07-05T11:37:28.951Z,41.33
2018-07-05T11:38:28.987Z,40.56
2018-07-05T11:39:29.020Z,39.90
2018-07-05T11:40:29.052Z,40.88
2018-07-05T11:41:29.084Z,40.11
2018-07-05T11:42:29.179Z,39.41
2018-07-05T11:43:29.153Z,40.55
2018-07-05T11:44:29.187Z,41.05
2018-07-05T11:45:29.218Z,40.29
2018-07-05T11:46:29.255Z,40.39
2018-07-05T11:47:29.285Z,41.13
2018-07-05T11:48:29.319Z,41.60
2018-07-05T11:49:29.352Z,41.80
2018-07-05T11:50:29.388Z,42.09
2018-07-05T11:51:29.424Z,42.93
2018-07-05T11:52:29.460Z,44.26
2018-07-05T11:53:29.485Z,44.18
2018-07-05T11:54:29.519Z,44.38
2018-07-05T11:55:29.558Z,44.45
2018-07-05T11:56:29.596Z,44.74
2018-07-05T11:57:29.621Z,44.28
2018-07-05T11:58:29.655Z,42.93
2018-07-05T11:59:29.688Z,41.50
2018-07-05T12:00:29.721Z,41.62
2018-07-05T12:01:29.752Z,40.95
2018-07-05T12:02:29.786Z,40.47
2018-07-05T12:03:29.820Z,40.47
2018-07-05T12:04:29.850Z,40.82
2018-07-05T12:05:29.885Z,41.86
2018-07-05T12:06:29.918Z,44.43
2018-07-05T12:07:29.952Z,45.56
2018-07-05T12:08:29.982Z,45.75
2018-07-05T12:09:30.017Z,44.92
2018-07-05T12:10:30.053Z,44.18
2018-07-05T12:11:30.078Z,43.13
2018-07-05T12:12:30.110Z,41.60
2018-07-05T12:13:30.140Z,40.94
2018-07-05T12:14:30.172Z,39.78
2018-07-05T12:15:30.204Z,40.06
2018-07-05T12:16:30.236Z,40.82
2018-07-05T12:17:30.268Z,41.29
2018-07-05T12:18:30.311Z,40.80
2018-07-05T12:19:30.333Z,41.09
2018-07-05T12:20:30.362Z,40.90
2018-07-05T12:21:30.394Z,40.92
2018-07-05T12:22:30.427Z,40.82
2018-07-05T12:23:30.458Z,40.60
2018-07-05T12:24:30.489Z,41.07
2018-07-05T12:25:30.521Z,41.36
2018-07-05T12:26:30.553Z,41.29
2018-07-05T12:27:30.584Z,40.33
2018-07-05T12:28:30.612Z,40.50
2018-07-05T12:29:30.649Z,40.14
2018-07-05T12:30:30.675Z,39.86
2018-07-05T12:31:30.706Z,40.06
2018-07-05T12:32:30.736Z,39.96
2018-07-05T12:33:30.776Z,39.54
2018-07-05T12:34:30.798Z,40.60
2018-07-05T12:35:30.831Z,41.66
2018-07-05T12:36:30.860Z,41.64
2018-07-05T12:37:30.891Z,41.93
2018-07-05T12:38:30.924Z,41.96
2018-07-05T12:39:30.968Z,41.86
2018-07-05T12:40:30.984Z,41.56
2018-07-05T12:41:31.013Z,42.22
2018-07-05T12:42:31.049Z,42.99
2018-07-05T12:43:31.075Z,42.77
2018-07-05T12:44:31.108Z,43.77
2018-07-05T12:45:31.139Z,43.30
2018-07-05T12:46:31.178Z,42.91
2018-07-05T12:47:31.211Z,43.28
2018-07-05T12:48:31.226Z,43.55
2018-07-05T12:49:31.256Z,43.95
2018-07-05T12:50:31.340Z,44.43
2018-07-05T12:51:31.319Z,44.43
2018-07-05T12:52:31.349Z,44.16
2018-07-05T12:53:31.375Z,44.06